sensor_id;sensor_type;location;lat;lon;timestamp;P1;durP1;ratioP1;P2;durP2;ratioP2
54428;SDS011;40337;52.978;6.310;2023-09-30T00:00:42;10.93;;;4.32;;
54428;SDS011;40337;52.978;6.310;2023-09-30T00:03:10;13.93;;;4.88;;
54428;SDS011;40337;52.978;6.310;2023-09-30T00:05:37;14.85;;;4.22;;
54428;SDS011;40337;52.978;6.310;2023-09-30T00:08:03;12.80;;;4.53;;
54428;SDS011;40337;52.978;6.310;2023-09-30T00:10:30;11.45;;;4.30;;
54428;SDS011;40337;52.978;6.310;2023-09-30T00:12:56;12.25;;;4.93;;
54428;SDS011;40337;52.978;6.310;2023-09-30T00:15:21;11.80;;;4.72;;
54428;SDS011;40337;52.978;6.310;2023-09-30T00:17:50;9.90;;;4.40;;
54428;SDS011;40337;52.978;6.310;2023-09-30T00:20:15;11.30;;;4.30;;
54428;SDS011;40337;52.978;6.310;2023-09-30T00:22:42;15.13;;;4.82;;
54428;SDS011;40337;52.978;6.310;2023-09-30T00:25:08;12.00;;;3.95;;
54428;SDS011;40337;52.978;6.310;2023-09-30T00:27:33;10.13;;;4.13;;
54428;SDS011;40337;52.978;6.310;2023-09-30T00:29:59;10.77;;;4.15;;
54428;SDS011;40337;52.978;6.310;2023-09-30T00:32:24;7.85;;;4.07;;
54428;SDS011;40337;52.978;6.310;2023-09-30T00:34:50;10.40;;;4.18;;
54428;SDS011;40337;52.978;6.310;2023-09-30T00:37:17;12.75;;;3.97;;
54428;SDS011;40337;52.978;6.310;2023-09-30T00:39:43;12.07;;;4.15;;
54428;SDS011;40337;52.978;6.310;2023-09-30T00:42:09;11.05;;;4.38;;
54428;SDS011;40337;52.978;6.310;2023-09-30T00:44:35;11.27;;;4.53;;
54428;SDS011;40337;52.978;6.310;2023-09-30T00:47:00;11.50;;;4.28;;
54428;SDS011;40337;52.978;6.310;2023-09-30T00:49:26;11.98;;;4.20;;
54428;SDS011;40337;52.978;6.310;2023-09-30T00:51:53;10.43;;;3.85;;
54428;SDS011;40337;52.978;6.310;2023-09-30T00:54:20;13.35;;;4.25;;
54428;SDS011;40337;52.978;6.310;2023-09-30T00:56:47;9.70;;;4.45;;
54428;SDS011;40337;52.978;6.310;2023-09-30T00:59:15;10.85;;;3.67;;
54428;SDS011;40337;52.978;6.310;2023-09-30T01:01:42;11.32;;;4.68;;
54428;SDS011;40337;52.978;6.310;2023-09-30T01:04:08;11.65;;;3.70;;
54428;SDS011;40337;52.978;6.310;2023-09-30T01:06:35;12.73;;;4.35;;
54428;SDS011;40337;52.978;6.310;2023-09-30T01:09:00;12.45;;;4.43;;
54428;SDS011;40337;52.978;6.310;2023-09-30T01:11:26;12.38;;;4.20;;
54428;SDS011;40337;52.978;6.310;2023-09-30T01:13:51;10.55;;;4.10;;
54428;SDS011;40337;52.978;6.310;2023-09-30T01:16:17;13.85;;;4.57;;
54428;SDS011;40337;52.978;6.310;2023-09-30T01:18:43;12.77;;;4.43;;
54428;SDS011;40337;52.978;6.310;2023-09-30T01:21:09;11.73;;;4.18;;
54428;SDS011;40337;52.978;6.310;2023-09-30T01:23:35;11.52;;;4.13;;
54428;SDS011;40337;52.978;6.310;2023-09-30T01:26:10;9.68;;;4.40;;
54428;SDS011;40337;52.978;6.310;2023-09-30T01:28:37;10.27;;;4.10;;
54428;SDS011;40337;52.978;6.310;2023-09-30T01:31:03;10.52;;;4.32;;
54428;SDS011;40337;52.978;6.310;2023-09-30T01:33:29;10.98;;;4.00;;
54428;SDS011;40337;52.978;6.310;2023-09-30T01:35:56;12.43;;;4.22;;
54428;SDS011;40337;52.978;6.310;2023-09-30T01:38:21;10.90;;;4.35;;
54428;SDS011;40337;52.978;6.310;2023-09-30T01:40:47;14.05;;;4.30;;
54428;SDS011;40337;52.978;6.310;2023-09-30T01:43:13;11.40;;;4.43;;
54428;SDS011;40337;52.978;6.310;2023-09-30T01:45:39;11.13;;;4.22;;
54428;SDS011;40337;52.978;6.310;2023-09-30T01:48:05;9.07;;;3.78;;
54428;SDS011;40337;52.978;6.310;2023-09-30T01:50:31;17.25;;;4.85;;
54428;SDS011;40337;52.978;6.310;2023-09-30T01:52:57;12.18;;;4.28;;
54428;SDS011;40337;52.978;6.310;2023-09-30T01:55:23;13.23;;;3.95;;
54428;SDS011;40337;52.978;6.310;2023-09-30T01:57:48;11.50;;;4.28;;
54428;SDS011;40337;52.978;6.310;2023-09-30T02:00:14;11.63;;;4.30;;
54428;SDS011;40337;52.978;6.310;2023-09-30T02:02:39;10.45;;;4.13;;
54428;SDS011;40337;52.978;6.310;2023-09-30T02:05:06;14.07;;;4.63;;
54428;SDS011;40337;52.978;6.310;2023-09-30T02:07:35;14.50;;;5.03;;
54428;SDS011;40337;52.978;6.310;2023-09-30T02:10:01;9.98;;;4.30;;
54428;SDS011;40337;52.978;6.310;2023-09-30T02:12:27;11.45;;;4.50;;
54428;SDS011;40337;52.978;6.310;2023-09-30T02:14:57;11.02;;;4.63;;
54428;SDS011;40337;52.978;6.310;2023-09-30T02:17:23;10.73;;;4.57;;
54428;SDS011;40337;52.978;6.310;2023-09-30T02:19:49;11.52;;;4.53;;
54428;SDS011;40337;52.978;6.310;2023-09-30T02:22:15;11.93;;;4.68;;
54428;SDS011;40337;52.978;6.310;2023-09-30T02:24:40;9.75;;;4.75;;
54428;SDS011;40337;52.978;6.310;2023-09-30T02:27:06;14.68;;;5.45;;
54428;SDS011;40337;52.978;6.310;2023-09-30T02:29:31;12.45;;;4.93;;
54428;SDS011;40337;52.978;6.310;2023-09-30T02:31:58;11.27;;;5.40;;
54428;SDS011;40337;52.978;6.310;2023-09-30T02:34:23;11.88;;;5.00;;
54428;SDS011;40337;52.978;6.310;2023-09-30T02:36:49;15.73;;;5.50;;
54428;SDS011;40337;52.978;6.310;2023-09-30T02:39:15;12.93;;;5.30;;
54428;SDS011;40337;52.978;6.310;2023-09-30T02:41:44;15.18;;;5.60;;
54428;SDS011;40337;52.978;6.310;2023-09-30T02:44:10;15.10;;;5.57;;
54428;SDS011;40337;52.978;6.310;2023-09-30T02:46:35;10.73;;;5.00;;
54428;SDS011;40337;52.978;6.310;2023-09-30T02:49:02;13.60;;;5.80;;
54428;SDS011;40337;52.978;6.310;2023-09-30T02:51:28;14.02;;;5.43;;
54428;SDS011;40337;52.978;6.310;2023-09-30T02:53:54;14.13;;;5.45;;
54428;SDS011;40337;52.978;6.310;2023-09-30T02:56:20;15.75;;;5.68;;
54428;SDS011;40337;52.978;6.310;2023-09-30T02:58:49;14.23;;;5.07;;
54428;SDS011;40337;52.978;6.310;2023-09-30T03:01:16;13.35;;;5.40;;
54428;SDS011;40337;52.978;6.310;2023-09-30T03:03:42;12.70;;;5.70;;
54428;SDS011;40337;52.978;6.310;2023-09-30T03:06:11;11.23;;;5.90;;
54428;SDS011;40337;52.978;6.310;2023-09-30T03:08:37;12.68;;;5.70;;
54428;SDS011;40337;52.978;6.310;2023-09-30T03:11:02;13.18;;;5.88;;
54428;SDS011;40337;52.978;6.310;2023-09-30T03:13:29;12.00;;;6.53;;
54428;SDS011;40337;52.978;6.310;2023-09-30T03:15:55;14.05;;;6.30;;
54428;SDS011;40337;52.978;6.310;2023-09-30T03:18:22;12.52;;;6.22;;
54428;SDS011;40337;52.978;6.310;2023-09-30T03:20:51;11.70;;;5.75;;
54428;SDS011;40337;52.978;6.310;2023-09-30T03:23:25;12.75;;;5.65;;
54428;SDS011;40337;52.978;6.310;2023-09-30T03:25:58;15.00;;;6.28;;
54428;SDS011;40337;52.978;6.310;2023-09-30T03:28:25;16.23;;;6.25;;
54428;SDS011;40337;52.978;6.310;2023-09-30T03:30:51;14.60;;;6.13;;
54428;SDS011;40337;52.978;6.310;2023-09-30T03:33:17;15.75;;;6.65;;
54428;SDS011;40337;52.978;6.310;2023-09-30T03:35:42;14.05;;;6.38;;
54428;SDS011;40337;52.978;6.310;2023-09-30T03:38:09;13.80;;;6.55;;
54428;SDS011;40337;52.978;6.310;2023-09-30T03:40:35;15.73;;;6.40;;
54428;SDS011;40337;52.978;6.310;2023-09-30T03:43:03;13.55;;;6.35;;
54428;SDS011;40337;52.978;6.310;2023-09-30T03:45:30;13.13;;;6.70;;
54428;SDS011;40337;52.978;6.310;2023-09-30T03:47:59;13.43;;;6.70;;
54428;SDS011;40337;52.978;6.310;2023-09-30T03:50:27;15.65;;;6.68;;
54428;SDS011;40337;52.978;6.310;2023-09-30T03:53:00;15.30;;;6.55;;
54428;SDS011;40337;52.978;6.310;2023-09-30T03:55:27;14.70;;;6.63;;
54428;SDS011;40337;52.978;6.310;2023-09-30T03:57:54;15.30;;;6.80;;
54428;SDS011;40337;52.978;6.310;2023-09-30T04:00:20;15.77;;;6.50;;
54428;SDS011;40337;52.978;6.310;2023-09-30T04:02:46;13.13;;;6.32;;
54428;SDS011;40337;52.978;6.310;2023-09-30T04:05:19;13.35;;;6.22;;
54428;SDS011;40337;52.978;6.310;2023-09-30T04:07:51;11.18;;;6.25;;
54428;SDS011;40337;52.978;6.310;2023-09-30T04:10:16;15.38;;;7.35;;
54428;SDS011;40337;52.978;6.310;2023-09-30T04:12:42;17.60;;;6.97;;
54428;SDS011;40337;52.978;6.310;2023-09-30T04:15:08;16.50;;;7.15;;
54428;SDS011;40337;52.978;6.310;2023-09-30T04:17:37;12.55;;;6.70;;
54428;SDS011;40337;52.978;6.310;2023-09-30T04:20:04;16.50;;;7.07;;
54428;SDS011;40337;52.978;6.310;2023-09-30T04:22:33;16.00;;;7.15;;
54428;SDS011;40337;52.978;6.310;2023-09-30T04:25:00;14.20;;;6.30;;
54428;SDS011;40337;52.978;6.310;2023-09-30T04:27:25;15.85;;;6.75;;
54428;SDS011;40337;52.978;6.310;2023-09-30T04:29:52;15.63;;;6.97;;
54428;SDS011;40337;52.978;6.310;2023-09-30T04:32:18;11.88;;;6.90;;
54428;SDS011;40337;52.978;6.310;2023-09-30T04:34:44;15.10;;;6.78;;
54428;SDS011;40337;52.978;6.310;2023-09-30T04:37:11;11.95;;;6.55;;
54428;SDS011;40337;52.978;6.310;2023-09-30T04:39:39;13.18;;;6.55;;
54428;SDS011;40337;52.978;6.310;2023-09-30T04:42:04;12.38;;;6.35;;
54428;SDS011;40337;52.978;6.310;2023-09-30T04:44:30;12.45;;;6.45;;
54428;SDS011;40337;52.978;6.310;2023-09-30T04:46:56;14.00;;;6.40;;
54428;SDS011;40337;52.978;6.310;2023-09-30T04:49:22;15.13;;;6.47;;
54428;SDS011;40337;52.978;6.310;2023-09-30T04:51:49;15.65;;;6.82;;
54428;SDS011;40337;52.978;6.310;2023-09-30T04:54:14;15.02;;;6.45;;
54428;SDS011;40337;52.978;6.310;2023-09-30T04:56:40;16.33;;;7.07;;
54428;SDS011;40337;52.978;6.310;2023-09-30T04:59:06;13.77;;;6.90;;
54428;SDS011;40337;52.978;6.310;2023-09-30T05:01:32;14.30;;;6.70;;
54428;SDS011;40337;52.978;6.310;2023-09-30T05:03:57;15.45;;;6.40;;
54428;SDS011;40337;52.978;6.310;2023-09-30T05:06:24;14.90;;;6.90;;
54428;SDS011;40337;52.978;6.310;2023-09-30T05:08:49;15.07;;;7.00;;
54428;SDS011;40337;52.978;6.310;2023-09-30T05:11:15;15.15;;;7.00;;
54428;SDS011;40337;52.978;6.310;2023-09-30T05:13:41;15.02;;;7.47;;
54428;SDS011;40337;52.978;6.310;2023-09-30T05:16:06;15.85;;;7.00;;
54428;SDS011;40337;52.978;6.310;2023-09-30T05:18:34;13.50;;;7.55;;
54428;SDS011;40337;52.978;6.310;2023-09-30T05:21:00;12.50;;;6.72;;
54428;SDS011;40337;52.978;6.310;2023-09-30T05:23:26;11.55;;;7.22;;
54428;SDS011;40337;52.978;6.310;2023-09-30T05:25:51;14.20;;;7.30;;
54428;SDS011;40337;52.978;6.310;2023-09-30T05:28:18;16.50;;;7.15;;
54428;SDS011;40337;52.978;6.310;2023-09-30T05:30:45;12.85;;;7.07;;
54428;SDS011;40337;52.978;6.310;2023-09-30T05:33:10;15.25;;;8.02;;
54428;SDS011;40337;52.978;6.310;2023-09-30T05:35:39;13.40;;;7.32;;
54428;SDS011;40337;52.978;6.310;2023-09-30T05:38:08;13.57;;;7.82;;
54428;SDS011;40337;52.978;6.310;2023-09-30T05:40:35;14.10;;;7.95;;
54428;SDS011;40337;52.978;6.310;2023-09-30T05:43:01;14.88;;;7.47;;
54428;SDS011;40337;52.978;6.310;2023-09-30T05:45:27;12.95;;;8.10;;
54428;SDS011;40337;52.978;6.310;2023-09-30T05:47:55;14.57;;;8.38;;
54428;SDS011;40337;52.978;6.310;2023-09-30T05:50:22;14.68;;;8.35;;
54428;SDS011;40337;52.978;6.310;2023-09-30T05:52:51;15.48;;;8.70;;
54428;SDS011;40337;52.978;6.310;2023-09-30T05:55:18;16.20;;;9.20;;
54428;SDS011;40337;52.978;6.310;2023-09-30T05:57:49;15.07;;;8.77;;
54428;SDS011;40337;52.978;6.310;2023-09-30T06:00:15;14.52;;;8.60;;
54428;SDS011;40337;52.978;6.310;2023-09-30T06:02:53;16.30;;;8.85;;
54428;SDS011;40337;52.978;6.310;2023-09-30T06:05:19;12.88;;;8.52;;
54428;SDS011;40337;52.978;6.310;2023-09-30T06:07:47;14.20;;;8.07;;
54428;SDS011;40337;52.978;6.310;2023-09-30T06:10:16;14.18;;;8.60;;
54428;SDS011;40337;52.978;6.310;2023-09-30T06:12:44;13.23;;;8.63;;
54428;SDS011;40337;52.978;6.310;2023-09-30T06:15:16;17.08;;;9.35;;
54428;SDS011;40337;52.978;6.310;2023-09-30T06:17:47;14.32;;;8.35;;
54428;SDS011;40337;52.978;6.310;2023-09-30T06:20:14;18.58;;;9.88;;
54428;SDS011;40337;52.978;6.310;2023-09-30T06:22:43;15.85;;;9.50;;
54428;SDS011;40337;52.978;6.310;2023-09-30T06:25:14;15.05;;;9.25;;
54428;SDS011;40337;52.978;6.310;2023-09-30T06:27:44;16.23;;;9.43;;
54428;SDS011;40337;52.978;6.310;2023-09-30T06:30:11;15.88;;;8.73;;
54428;SDS011;40337;52.978;6.310;2023-09-30T06:32:38;17.27;;;9.45;;
54428;SDS011;40337;52.978;6.310;2023-09-30T06:35:04;15.55;;;9.43;;
54428;SDS011;40337;52.978;6.310;2023-09-30T06:37:31;14.63;;;9.30;;
54428;SDS011;40337;52.978;6.310;2023-09-30T06:39:57;17.63;;;9.43;;
54428;SDS011;40337;52.978;6.310;2023-09-30T06:42:24;16.92;;;10.10;;
54428;SDS011;40337;52.978;6.310;2023-09-30T06:44:50;13.90;;;9.45;;
54428;SDS011;40337;52.978;6.310;2023-09-30T06:47:15;15.52;;;9.90;;
54428;SDS011;40337;52.978;6.310;2023-09-30T06:49:41;15.60;;;10.07;;
54428;SDS011;40337;52.978;6.310;2023-09-30T06:52:07;17.10;;;10.15;;
54428;SDS011;40337;52.978;6.310;2023-09-30T06:54:33;14.52;;;10.70;;
54428;SDS011;40337;52.978;6.310;2023-09-30T06:56:59;19.10;;;10.38;;
54428;SDS011;40337;52.978;6.310;2023-09-30T06:59:25;18.90;;;10.65;;
54428;SDS011;40337;52.978;6.310;2023-09-30T07:01:51;15.20;;;9.85;;
54428;SDS011;40337;52.978;6.310;2023-09-30T07:04:16;15.65;;;10.20;;
54428;SDS011;40337;52.978;6.310;2023-09-30T07:06:42;15.80;;;10.15;;
54428;SDS011;40337;52.978;6.310;2023-09-30T07:09:08;16.20;;;10.63;;
54428;SDS011;40337;52.978;6.310;2023-09-30T07:11:35;17.35;;;10.38;;
54428;SDS011;40337;52.978;6.310;2023-09-30T07:14:01;15.90;;;10.60;;
54428;SDS011;40337;52.978;6.310;2023-09-30T07:16:27;15.80;;;10.65;;
54428;SDS011;40337;52.978;6.310;2023-09-30T07:18:52;15.45;;;10.50;;
54428;SDS011;40337;52.978;6.310;2023-09-30T07:21:18;18.30;;;10.70;;
54428;SDS011;40337;52.978;6.310;2023-09-30T07:23:45;18.27;;;11.00;;
54428;SDS011;40337;52.978;6.310;2023-09-30T07:26:10;17.00;;;10.48;;
54428;SDS011;40337;52.978;6.310;2023-09-30T07:28:36;17.25;;;11.10;;
54428;SDS011;40337;52.978;6.310;2023-09-30T07:31:02;18.98;;;11.30;;
54428;SDS011;40337;52.978;6.310;2023-09-30T07:33:27;16.80;;;10.40;;
54428;SDS011;40337;52.978;6.310;2023-09-30T07:35:54;17.58;;;10.93;;
54428;SDS011;40337;52.978;6.310;2023-09-30T07:38:21;18.10;;;11.18;;
54428;SDS011;40337;52.978;6.310;2023-09-30T07:40:47;17.95;;;10.68;;
54428;SDS011;40337;52.978;6.310;2023-09-30T07:43:13;16.48;;;10.07;;
54428;SDS011;40337;52.978;6.310;2023-09-30T07:45:39;16.67;;;10.95;;
54428;SDS011;40337;52.978;6.310;2023-09-30T07:48:06;15.18;;;10.88;;
54428;SDS011;40337;52.978;6.310;2023-09-30T07:50:34;15.30;;;10.57;;
54428;SDS011;40337;52.978;6.310;2023-09-30T07:53:00;17.88;;;11.13;;
54428;SDS011;40337;52.978;6.310;2023-09-30T07:55:26;17.20;;;11.30;;
54428;SDS011;40337;52.978;6.310;2023-09-30T07:57:51;18.42;;;10.85;;
54428;SDS011;40337;52.978;6.310;2023-09-30T08:00:17;15.57;;;11.25;;
54428;SDS011;40337;52.978;6.310;2023-09-30T08:02:46;17.42;;;11.68;;
54428;SDS011;40337;52.978;6.310;2023-09-30T08:05:12;18.27;;;11.20;;
54428;SDS011;40337;52.978;6.310;2023-09-30T08:07:37;19.15;;;11.57;;
54428;SDS011;40337;52.978;6.310;2023-09-30T08:10:03;17.40;;;11.93;;
54428;SDS011;40337;52.978;6.310;2023-09-30T08:12:30;17.33;;;11.60;;
54428;SDS011;40337;52.978;6.310;2023-09-30T08:14:55;18.77;;;11.73;;
54428;SDS011;40337;52.978;6.310;2023-09-30T08:17:21;20.92;;;12.55;;
54428;SDS011;40337;52.978;6.310;2023-09-30T08:19:46;21.58;;;12.90;;
54428;SDS011;40337;52.978;6.310;2023-09-30T08:22:13;19.10;;;12.32;;
54428;SDS011;40337;52.978;6.310;2023-09-30T08:24:39;18.50;;;12.40;;
54428;SDS011;40337;52.978;6.310;2023-09-30T08:27:04;21.60;;;12.23;;
54428;SDS011;40337;52.978;6.310;2023-09-30T08:29:33;14.73;;;10.95;;
54428;SDS011;40337;52.978;6.310;2023-09-30T08:32:01;17.30;;;10.90;;
54428;SDS011;40337;52.978;6.310;2023-09-30T08:34:28;19.73;;;11.95;;
54428;SDS011;40337;52.978;6.310;2023-09-30T08:36:54;17.23;;;11.07;;
54428;SDS011;40337;52.978;6.310;2023-09-30T08:39:19;15.98;;;10.85;;
54428;SDS011;40337;52.978;6.310;2023-09-30T08:41:45;18.38;;;10.98;;
54428;SDS011;40337;52.978;6.310;2023-09-30T08:44:11;18.52;;;11.27;;
54428;SDS011;40337;52.978;6.310;2023-09-30T08:46:37;18.02;;;10.35;;
54428;SDS011;40337;52.978;6.310;2023-09-30T08:49:05;18.05;;;11.43;;
54428;SDS011;40337;52.978;6.310;2023-09-30T08:51:32;18.35;;;11.05;;
54428;SDS011;40337;52.978;6.310;2023-09-30T08:53:58;19.15;;;11.15;;
54428;SDS011;40337;52.978;6.310;2023-09-30T08:56:26;17.35;;;10.77;;
54428;SDS011;40337;52.978;6.310;2023-09-30T08:58:57;16.98;;;10.25;;
54428;SDS011;40337;52.978;6.310;2023-09-30T09:01:27;16.65;;;10.07;;
54428;SDS011;40337;52.978;6.310;2023-09-30T09:03:54;15.98;;;9.80;;
54428;SDS011;40337;52.978;6.310;2023-09-30T09:06:23;15.05;;;8.90;;
54428;SDS011;40337;52.978;6.310;2023-09-30T09:08:50;17.73;;;9.35;;
54428;SDS011;40337;52.978;6.310;2023-09-30T09:11:16;15.10;;;8.88;;
54428;SDS011;40337;52.978;6.310;2023-09-30T09:13:46;14.35;;;8.43;;
54428;SDS011;40337;52.978;6.310;2023-09-30T09:16:14;15.75;;;9.10;;
54428;SDS011;40337;52.978;6.310;2023-09-30T09:18:40;14.35;;;9.40;;
54428;SDS011;40337;52.978;6.310;2023-09-30T09:21:19;13.07;;;7.97;;
54428;SDS011;40337;52.978;6.310;2023-09-30T09:23:48;14.85;;;8.45;;
54428;SDS011;40337;52.978;6.310;2023-09-30T09:26:28;14.18;;;8.50;;
54428;SDS011;40337;52.978;6.310;2023-09-30T09:28:57;12.75;;;7.88;;
54428;SDS011;40337;52.978;6.310;2023-09-30T09:31:24;14.35;;;6.78;;
54428;SDS011;40337;52.978;6.310;2023-09-30T09:33:54;12.95;;;6.60;;
54428;SDS011;40337;52.978;6.310;2023-09-30T09:36:19;10.27;;;6.80;;
54428;SDS011;40337;52.978;6.310;2023-09-30T09:38:49;9.23;;;5.80;;
54428;SDS011;40337;52.978;6.310;2023-09-30T09:41:18;10.45;;;5.80;;
54428;SDS011;40337;52.978;6.310;2023-09-30T09:43:50;12.43;;;6.03;;
54428;SDS011;40337;52.978;6.310;2023-09-30T09:46:16;14.68;;;6.55;;
54428;SDS011;40337;52.978;6.310;2023-09-30T09:48:42;14.73;;;7.50;;
54428;SDS011;40337;52.978;6.310;2023-09-30T09:51:11;14.35;;;7.47;;
54428;SDS011;40337;52.978;6.310;2023-09-30T09:53:38;12.27;;;6.70;;
54428;SDS011;40337;52.978;6.310;2023-09-30T09:56:09;11.80;;;6.00;;
54428;SDS011;40337;52.978;6.310;2023-09-30T09:58:36;11.70;;;5.25;;
54428;SDS011;40337;52.978;6.310;2023-09-30T10:01:06;9.32;;;4.22;;
54428;SDS011;40337;52.978;6.310;2023-09-30T10:03:33;10.60;;;5.20;;
54428;SDS011;40337;52.978;6.310;2023-09-30T10:05:59;10.27;;;4.47;;
54428;SDS011;40337;52.978;6.310;2023-09-30T10:08:31;8.88;;;3.38;;
54428;SDS011;40337;52.978;6.310;2023-09-30T10:11:00;12.40;;;4.22;;
54428;SDS011;40337;52.978;6.310;2023-09-30T10:19:10;12.00;;;3.03;;
54428;SDS011;40337;52.978;6.310;2023-09-30T10:21:36;10.68;;;2.80;;
54428;SDS011;40337;52.978;6.310;2023-09-30T10:35:15;9.43;;;3.45;;
54428;SDS011;40337;52.978;6.310;2023-09-30T10:37:42;10.88;;;3.88;;
54428;SDS011;40337;52.978;6.310;2023-09-30T10:40:08;9.93;;;3.60;;
54428;SDS011;40337;52.978;6.310;2023-09-30T10:42:47;8.02;;;3.75;;
54428;SDS011;40337;52.978;6.310;2023-09-30T10:50:53;6.07;;;3.22;;
54428;SDS011;40337;52.978;6.310;2023-09-30T10:53:29;9.02;;;3.70;;
54428;SDS011;40337;52.978;6.310;2023-09-30T10:55:59;9.80;;;3.78;;
54428;SDS011;40337;52.978;6.310;2023-09-30T11:01:23;10.35;;;3.67;;
54428;SDS011;40337;52.978;6.310;2023-09-30T11:03:50;7.05;;;3.10;;
54428;SDS011;40337;52.978;6.310;2023-09-30T11:06:28;7.93;;;2.50;;
54428;SDS011;40337;52.978;6.310;2023-09-30T11:08:57;8.40;;;2.50;;
54428;SDS011;40337;52.978;6.310;2023-09-30T11:16:51;7.30;;;2.28;;
54428;SDS011;40337;52.978;6.310;2023-09-30T11:19:19;7.03;;;1.95;;
54428;SDS011;40337;52.978;6.310;2023-09-30T11:21:49;7.07;;;2.38;;
54428;SDS011;40337;52.978;6.310;2023-09-30T11:24:16;4.68;;;1.80;;
54428;SDS011;40337;52.978;6.310;2023-09-30T11:26:42;5.82;;;2.03;;
54428;SDS011;40337;52.978;6.310;2023-09-30T11:29:09;6.05;;;1.80;;
54428;SDS011;40337;52.978;6.310;2023-09-30T11:31:39;7.13;;;2.05;;
54428;SDS011;40337;52.978;6.310;2023-09-30T11:34:06;4.85;;;1.90;;
54428;SDS011;40337;52.978;6.310;2023-09-30T11:36:35;8.00;;;2.17;;
54428;SDS011;40337;52.978;6.310;2023-09-30T11:39:03;8.43;;;2.00;;
54428;SDS011;40337;52.978;6.310;2023-09-30T11:41:32;5.53;;;2.13;;
54428;SDS011;40337;52.978;6.310;2023-09-30T11:44:03;7.03;;;2.20;;
54428;SDS011;40337;52.978;6.310;2023-09-30T11:46:49;7.32;;;2.10;;
54428;SDS011;40337;52.978;6.310;2023-09-30T11:49:25;4.95;;;1.85;;
54428;SDS011;40337;52.978;6.310;2023-09-30T11:52:05;5.80;;;1.70;;
54428;SDS011;40337;52.978;6.310;2023-09-30T11:54:42;5.00;;;1.83;;
54428;SDS011;40337;52.978;6.310;2023-09-30T11:57:10;4.40;;;1.75;;
54428;SDS011;40337;52.978;6.310;2023-09-30T11:59:43;5.88;;;2.00;;
54428;SDS011;40337;52.978;6.310;2023-09-30T12:02:10;5.90;;;1.98;;
54428;SDS011;40337;52.978;6.310;2023-09-30T12:04:42;7.55;;;2.03;;
54428;SDS011;40337;52.978;6.310;2023-09-30T12:07:09;6.25;;;2.10;;
54428;SDS011;40337;52.978;6.310;2023-09-30T12:09:35;6.13;;;1.77;;
54428;SDS011;40337;52.978;6.310;2023-09-30T12:12:02;6.10;;;1.98;;
54428;SDS011;40337;52.978;6.310;2023-09-30T12:14:29;6.25;;;1.92;;
54428;SDS011;40337;52.978;6.310;2023-09-30T12:16:56;5.03;;;1.70;;
54428;SDS011;40337;52.978;6.310;2023-09-30T12:19:22;6.25;;;2.10;;
54428;SDS011;40337;52.978;6.310;2023-09-30T12:21:47;4.60;;;1.85;;
54428;SDS011;40337;52.978;6.310;2023-09-30T12:24:14;6.63;;;2.08;;
54428;SDS011;40337;52.978;6.310;2023-09-30T12:26:45;5.25;;;1.90;;
54428;SDS011;40337;52.978;6.310;2023-09-30T12:29:13;6.75;;;2.03;;
54428;SDS011;40337;52.978;6.310;2023-09-30T12:31:43;6.13;;;1.73;;
54428;SDS011;40337;52.978;6.310;2023-09-30T12:34:13;8.82;;;1.85;;
54428;SDS011;40337;52.978;6.310;2023-09-30T12:36:39;5.38;;;1.75;;
54428;SDS011;40337;52.978;6.310;2023-09-30T12:39:05;6.75;;;2.03;;
54428;SDS011;40337;52.978;6.310;2023-09-30T12:41:39;6.47;;;2.08;;
54428;SDS011;40337;52.978;6.310;2023-09-30T12:44:08;6.60;;;2.05;;
54428;SDS011;40337;52.978;6.310;2023-09-30T12:46:34;6.65;;;2.20;;
54428;SDS011;40337;52.978;6.310;2023-09-30T12:49:02;5.68;;;2.00;;
54428;SDS011;40337;52.978;6.310;2023-09-30T12:51:28;4.82;;;1.73;;
54428;SDS011;40337;52.978;6.310;2023-09-30T12:53:54;5.35;;;1.90;;
54428;SDS011;40337;52.978;6.310;2023-09-30T12:56:19;5.78;;;1.90;;
54428;SDS011;40337;52.978;6.310;2023-09-30T12:58:45;6.53;;;2.30;;
54428;SDS011;40337;52.978;6.310;2023-09-30T13:01:11;6.40;;;1.95;;
54428;SDS011;40337;52.978;6.310;2023-09-30T13:03:36;4.43;;;1.90;;
54428;SDS011;40337;52.978;6.310;2023-09-30T13:06:02;6.72;;;2.15;;
54428;SDS011;40337;52.978;6.310;2023-09-30T13:08:28;5.53;;;1.88;;
54428;SDS011;40337;52.978;6.310;2023-09-30T13:10:58;6.28;;;2.13;;
54428;SDS011;40337;52.978;6.310;2023-09-30T13:13:31;6.20;;;2.20;;
54428;SDS011;40337;52.978;6.310;2023-09-30T13:16:02;5.45;;;2.00;;
54428;SDS011;40337;52.978;6.310;2023-09-30T13:18:30;6.22;;;2.08;;
54428;SDS011;40337;52.978;6.310;2023-09-30T13:20:56;6.20;;;2.28;;
54428;SDS011;40337;52.978;6.310;2023-09-30T13:23:22;5.25;;;2.08;;
54428;SDS011;40337;52.978;6.310;2023-09-30T13:25:47;4.72;;;1.73;;
54428;SDS011;40337;52.978;6.310;2023-09-30T13:28:13;6.28;;;2.30;;
54428;SDS011;40337;52.978;6.310;2023-09-30T13:30:39;8.40;;;2.15;;
54428;SDS011;40337;52.978;6.310;2023-09-30T13:33:04;5.00;;;1.92;;
54428;SDS011;40337;52.978;6.310;2023-09-30T13:35:30;6.97;;;1.98;;
54428;SDS011;40337;52.978;6.310;2023-09-30T13:37:56;7.65;;;2.38;;
54428;SDS011;40337;52.978;6.310;2023-09-30T13:40:22;6.78;;;2.30;;
54428;SDS011;40337;52.978;6.310;2023-09-30T13:42:48;5.57;;;2.08;;
54428;SDS011;40337;52.978;6.310;2023-09-30T13:45:14;5.15;;;2.00;;
54428;SDS011;40337;52.978;6.310;2023-09-30T13:47:42;5.15;;;2.10;;
54428;SDS011;40337;52.978;6.310;2023-09-30T13:50:08;5.32;;;2.00;;
54428;SDS011;40337;52.978;6.310;2023-09-30T13:52:34;5.93;;;1.77;;
54428;SDS011;40337;52.978;6.310;2023-09-30T13:55:00;5.07;;;1.90;;
54428;SDS011;40337;52.978;6.310;2023-09-30T13:57:25;5.50;;;1.90;;
54428;SDS011;40337;52.978;6.310;2023-09-30T13:59:51;5.65;;;2.05;;
54428;SDS011;40337;52.978;6.310;2023-09-30T14:02:17;6.93;;;2.35;;
54428;SDS011;40337;52.978;6.310;2023-09-30T14:04:42;5.50;;;2.00;;
54428;SDS011;40337;52.978;6.310;2023-09-30T14:07:09;5.72;;;1.98;;
54428;SDS011;40337;52.978;6.310;2023-09-30T14:09:34;7.00;;;2.17;;
54428;SDS011;40337;52.978;6.310;2023-09-30T14:12:00;6.20;;;1.90;;
54428;SDS011;40337;52.978;6.310;2023-09-30T14:14:26;6.75;;;2.00;;
54428;SDS011;40337;52.978;6.310;2023-09-30T14:16:51;8.95;;;2.33;;
54428;SDS011;40337;52.978;6.310;2023-09-30T14:19:17;5.40;;;1.80;;
54428;SDS011;40337;52.978;6.310;2023-09-30T14:21:43;5.18;;;2.15;;
54428;SDS011;40337;52.978;6.310;2023-09-30T14:24:08;5.40;;;1.95;;
54428;SDS011;40337;52.978;6.310;2023-09-30T14:26:34;5.82;;;2.05;;
54428;SDS011;40337;52.978;6.310;2023-09-30T14:29:01;6.22;;;1.85;;
54428;SDS011;40337;52.978;6.310;2023-09-30T14:31:26;4.97;;;1.75;;
54428;SDS011;40337;52.978;6.310;2023-09-30T14:33:52;5.90;;;1.80;;
54428;SDS011;40337;52.978;6.310;2023-09-30T14:36:18;5.82;;;1.90;;
54428;SDS011;40337;52.978;6.310;2023-09-30T14:38:44;7.07;;;1.65;;
54428;SDS011;40337;52.978;6.310;2023-09-30T14:41:10;7.45;;;1.80;;
54428;SDS011;40337;52.978;6.310;2023-09-30T14:43:39;8.10;;;1.98;;
54428;SDS011;40337;52.978;6.310;2023-09-30T14:46:05;9.07;;;2.25;;
54428;SDS011;40337;52.978;6.310;2023-09-30T14:48:31;7.63;;;2.10;;
54428;SDS011;40337;52.978;6.310;2023-09-30T14:50:57;6.10;;;2.08;;
54428;SDS011;40337;52.978;6.310;2023-09-30T14:53:23;7.57;;;2.22;;
54428;SDS011;40337;52.978;6.310;2023-09-30T14:55:49;5.55;;;2.08;;
54428;SDS011;40337;52.978;6.310;2023-09-30T14:58:15;6.68;;;2.20;;
54428;SDS011;40337;52.978;6.310;2023-09-30T15:00:40;5.10;;;1.65;;
54428;SDS011;40337;52.978;6.310;2023-09-30T15:03:07;7.55;;;1.80;;
54428;SDS011;40337;52.978;6.310;2023-09-30T15:05:32;6.25;;;2.15;;